createdAt,value
2018-07-16T00:01:49.988Z,12.10
2018-07-16T00:04:19.803Z,10.90
2018-07-16T00:06:53.924Z,10.90
2018-07-16T00:09:24.720Z,11.60
2018-07-16T00:11:54.580Z,12.00
2018-07-16T00:14:24.504Z,11.17
2018-07-16T00:16:53.336Z,11.77
2018-07-16T00:19:24.132Z,10.40
2018-07-16T00:21:54.980Z,11.07
2018-07-16T00:24:25.887Z,11.33
2018-07-16T00:26:55.944Z,10.93
2018-07-16T00:29:24.763Z,11.40
2018-07-16T00:31:58.448Z,12.67
2018-07-16T00:34:28.280Z,11.13
2018-07-16T00:37:02.087Z,11.80
2018-07-16T00:39:31.095Z,11.97
2018-07-16T00:42:00.052Z,11.20
2018-07-16T00:44:31.008Z,11.50
2018-07-16T00:46:59.923Z,11.03
2018-07-16T00:49:28.851Z,11.37
2018-07-16T00:52:01.985Z,10.97
2018-07-16T00:54:32.859Z,12.03
2018-07-16T00:57:01.776Z,10.03
2018-07-16T00:59:31.724Z,10.30
2018-07-16T01:02:06.459Z,11.23
2018-07-16T01:04:35.467Z,10.90
2018-07-16T01:07:05.461Z,11.50
2018-07-16T01:09:35.419Z,11.43
2018-07-16T01:12:06.303Z,12.30
2018-07-16T01:14:35.096Z,11.97
2018-07-16T01:17:03.916Z,11.87
2018-07-16T01:19:33.755Z,11.97
2018-07-16T01:22:02.659Z,11.03
2018-07-16T01:24:32.595Z,11.10
2018-07-16T01:27:01.444Z,13.03
2018-07-16T01:29:31.347Z,12.27
2018-07-16T01:32:01.323Z,11.77
2018-07-16T01:34:35.903Z,11.47
2018-07-16T01:37:04.747Z,12.10
2018-07-16T01:39:33.631Z,11.37
2018-07-16T01:42:03.467Z,12.20
2018-07-16T01:44:33.414Z,11.43
2018-07-16T01:47:02.359Z,10.87
2018-07-16T01:49:48.066Z,11.60
2018-07-16T01:52:25.309Z,10.23
2018-07-16T01:54:57.711Z,11.03
2018-07-16T01:57:26.579Z,10.30
2018-07-16T01:59:55.498Z,11.47
2018-07-16T02:02:30.386Z,11.00
2018-07-16T02:04:59.251Z,11.43
2018-07-16T02:07:30.174Z,11.13
2018-07-16T02:10:06.210Z,10.63
2018-07-16T02:12:49.359Z,11.90
2018-07-16T02:15:21.438Z,11.70
2018-07-16T02:17:56.835Z,11.70
2018-07-16T02:20:29.207Z,11.23
2018-07-16T02:23:02.123Z,12.13
2018-07-16T02:25:37.031Z,12.20
2018-07-16T02:28:07.103Z,10.50
2018-07-16T02:30:36.151Z,11.93
2018-07-16T02:33:06.279Z,11.57
2018-07-16T02:35:37.115Z,10.80
2018-07-16T02:38:09.142Z,11.40
2018-07-16T02:40:38.931Z,10.20
2018-07-16T02:43:07.735Z,11.17
2018-07-16T02:45:38.617Z,10.70
2018-07-16T02:48:07.507Z,11.23
2018-07-16T02:50:37.486Z,11.10
2018-07-16T02:53:06.438Z,11.20
2018-07-16T02:55:36.259Z,11.97
2018-07-16T02:58:10.532Z,11.00
2018-07-16T03:01:02.437Z,12.30
2018-07-16T03:03:41.637Z,10.50
2018-07-16T03:06:14.931Z,11.57
2018-07-16T03:08:44.803Z,12.67
2018-07-16T03:11:13.497Z,11.10
2018-07-16T03:13:42.299Z,10.93
2018-07-16T03:16:11.171Z,10.80
2018-07-16T03:18:41.055Z,11.10
2018-07-16T03:21:10.815Z,10.80
2018-07-16T03:23:41.740Z,12.23
2018-07-16T03:26:10.613Z,11.73
2018-07-16T03:28:41.443Z,12.00
2018-07-16T03:31:10.495Z,10.50
2018-07-16T03:33:45.040Z,10.50
2018-07-16T03:36:20.439Z,11.27
2018-07-16T03:38:50.751Z,9.90
2018-07-16T03:41:25.742Z,10.00
2018-07-16T03:43:56.923Z,10.80
2018-07-16T03:46:27.175Z,10.20
2018-07-16T03:48:56.351Z,10.33
2018-07-16T03:51:25.251Z,11.70
2018-07-16T03:53:54.234Z,11.70
2018-07-16T03:56:23.335Z,11.57
2018-07-16T03:59:04.882Z,12.03
2018-07-16T04:01:37.801Z,12.17
2018-07-16T04:04:06.874Z,13.03
2018-07-16T04:06:39.023Z,12.90
2018-07-16T04:09:13.895Z,13.60
2018-07-16T04:11:43.943Z,13.30
2018-07-16T04:14:13.647Z,12.40
2018-07-16T04:16:42.991Z,13.03
2018-07-16T04:19:18.031Z,11.60
2018-07-16T04:21:54.865Z,10.17
2018-07-16T04:24:24.143Z,10.40
2018-07-16T04:26:53.355Z,11.00
2018-07-16T04:29:22.391Z,12.03
2018-07-16T04:31:52.462Z,11.77
2018-07-16T04:34:26.804Z,11.90
2018-07-16T04:36:56.583Z,12.33
2018-07-16T04:39:39.541Z,12.27
2018-07-16T04:42:21.010Z,12.93
2018-07-16T04:44:54.619Z,13.00
2018-07-16T04:47:28.518Z,12.83
2018-07-16T04:49:57.277Z,11.57
2018-07-16T04:52:27.104Z,11.70
2018-07-16T04:55:03.570Z,11.40
2018-07-16T04:57:42.426Z,11.83
2018-07-16T05:00:15.678Z,12.13
2018-07-16T05:02:56.403Z,11.87
2018-07-16T05:05:28.306Z,12.10
2018-07-16T05:07:57.082Z,12.60
2018-07-16T05:10:26.094Z,11.40
2018-07-16T05:12:54.978Z,11.70
2018-07-16T05:15:29.750Z,13.40
2018-07-16T05:17:58.733Z,12.00
2018-07-16T05:20:27.734Z,11.87
2018-07-16T05:22:56.783Z,12.60
2018-07-16T05:25:25.706Z,12.70
2018-07-16T05:27:56.751Z,12.90
2018-07-16T05:30:30.534Z,12.33
2018-07-16T05:32:59.418Z,13.30
2018-07-16T05:35:32.023Z,13.80
2018-07-16T05:38:02.053Z,13.10
2018-07-16T05:40:31.042Z,13.60
2018-07-16T05:43:07.003Z,14.50
2018-07-16T05:45:36.302Z,13.43
2018-07-16T05:48:05.918Z,13.80
2018-07-16T05:50:34.746Z,13.73
2018-07-16T05:53:04.818Z,12.23
2018-07-16T05:55:36.709Z,13.27
2018-07-16T05:58:08.661Z,12.73
2018-07-16T06:00:53.502Z,11.63
2018-07-16T06:03:22.402Z,11.57
2018-07-16T06:05:55.218Z,11.97
2018-07-16T06:08:29.770Z,10.40
2018-07-16T06:10:59.676Z,11.83
2018-07-16T06:13:31.602Z,10.57
2018-07-16T06:16:00.518Z,10.20
2018-07-16T06:18:43.362Z,10.00
2018-07-16T06:21:13.170Z,10.70
2018-07-16T06:23:45.016Z,11.00
2018-07-16T06:26:14.814Z,10.90
2018-07-16T06:28:47.107Z,9.33
2018-07-16T06:31:17.327Z,9.83
2018-07-16T06:33:47.138Z,9.27
2018-07-16T06:36:16.931Z,10.10
2018-07-16T06:38:56.946Z,10.63
2018-07-16T06:41:36.280Z,10.57
2018-07-16T06:44:04.602Z,9.83
2018-07-16T06:46:35.238Z,10.30
2018-07-16T06:49:04.027Z,9.37
2018-07-16T06:51:43.042Z,8.83
2018-07-16T06:54:19.736Z,9.70
2018-07-16T06:56:52.071Z,9.20
2018-07-16T06:59:34.731Z,9.93
2018-07-16T07:02:09.301Z,8.27
2018-07-16T07:04:44.083Z,8.83
2018-07-16T07:07:14.795Z,9.10
2018-07-16T07:09:44.658Z,8.77
2018-07-16T07:12:18.054Z,8.80
2018-07-16T07:14:56.318Z,8.57
2018-07-16T07:17:31.355Z,8.63
2018-07-16T07:20:00.123Z,8.90
2018-07-16T07:22:40.827Z,8.67
2018-07-16T07:25:10.635Z,9.63
2018-07-16T07:27:40.427Z,8.60
2018-07-16T07:30:15.599Z,8.17
2018-07-16T07:32:46.353Z,8.00
2018-07-16T07:35:16.281Z,7.03
2018-07-16T07:37:45.940Z,6.00
2018-07-16T07:40:15.075Z,6.23
2018-07-16T07:42:56.119Z,6.40
2018-07-16T07:45:28.171Z,6.60
2018-07-16T07:47:56.956Z,6.27
2018-07-16T07:50:25.850Z,6.13
2018-07-16T07:52:54.763Z,5.97
2018-07-16T07:55:36.069Z,5.77
2018-07-16T07:58:05.902Z,5.90
2018-07-16T08:00:34.639Z,6.73
2018-07-16T08:03:09.814Z,6.57
2018-07-16T08:05:51.322Z,5.87
2018-07-16T08:08:26.659Z,6.80
2018-07-16T08:10:55.410Z,6.73
2018-07-16T08:13:25.207Z,7.07
2018-07-16T08:15:54.091Z,7.60
2018-07-16T08:18:22.802Z,7.30
2018-07-16T08:20:57.650Z,7.40
2018-07-16T08:23:29.610Z,6.73
2018-07-16T08:25:58.418Z,6.47
2018-07-16T08:28:30.235Z,6.60
2018-07-16T08:30:59.999Z,6.37
2018-07-16T08:33:28.848Z,5.63
2018-07-16T08:35:57.582Z,5.80
2018-07-16T08:38:26.456Z,6.13
2018-07-16T08:40:56.223Z,6.10
2018-07-16T08:43:31.819Z,5.30
2018-07-16T08:46:08.643Z,6.23
2018-07-16T08:48:50.830Z,5.80
2018-07-16T08:51:38.838Z,5.90
2018-07-16T08:54:07.677Z,5.40
2018-07-16T08:56:55.662Z,5.20
2018-07-16T08:59:24.511Z,6.33
2018-07-16T09:01:58.203Z,6.40
2018-07-16T09:04:28.930Z,5.93
2018-07-16T09:06:57.752Z,5.90
2018-07-16T09:09:26.539Z,6.40
2018-07-16T09:11:58.510Z,6.53
2018-07-16T09:14:39.134Z,5.20
2018-07-16T09:17:08.885Z,4.43
2018-07-16T09:19:41.234Z,5.77
2018-07-16T09:22:24.369Z,6.90
2018-07-16T09:24:57.426Z,6.07
2018-07-16T09:27:27.246Z,5.63
2018-07-16T09:29:57.062Z,5.60
2018-07-16T09:32:31.398Z,5.47
2018-07-16T09:35:01.082Z,5.00
2018-07-16T09:37:30.825Z,5.23
2018-07-16T09:40:06.003Z,5.27
2018-07-16T09:42:40.925Z,4.87
2018-07-16T09:45:09.766Z,5.50
2018-07-16T09:47:38.563Z,4.73
2018-07-16T09:50:07.329Z,5.13
2018-07-16T09:52:37.137Z,5.60
2018-07-16T09:55:12.598Z,4.77
2018-07-16T09:57:41.405Z,4.20
2018-07-16T10:00:14.406Z,5.10
2018-07-16T10:02:47.471Z,4.53
2018-07-16T10:05:17.357Z,4.33
2018-07-16T10:07:57.997Z,4.23
2018-07-16T10:13:28.575Z,4.50
2018-07-16T10:15:58.845Z,5.13
2018-07-16T10:18:40.480Z,4.80
2018-07-16T10:24:02.557Z,5.07
2018-07-16T10:26:46.142Z,4.83
2018-07-16T10:29:20.898Z,4.73
2018-07-16T10:31:54.942Z,5.20
2018-07-16T10:34:24.902Z,4.73
2018-07-16T10:37:14.862Z,4.30
2018-07-16T10:39:43.702Z,5.33
2018-07-16T10:42:32.402Z,4.73
2018-07-16T10:45:01.358Z,4.50
2018-07-16T10:47:30.202Z,5.03
2018-07-16T10:50:04.038Z,4.80
2018-07-16T10:52:50.511Z,4.97
2018-07-16T10:55:21.545Z,5.17
2018-07-16T10:57:57.361Z,5.00
2018-07-16T11:00:26.733Z,5.67
2018-07-16T11:03:00.552Z,6.20
2018-07-16T11:05:29.473Z,6.20
2018-07-16T11:07:58.102Z,6.13
2018-07-16T11:10:26.933Z,7.33
2018-07-16T11:12:55.738Z,6.23
2018-07-16T11:15:24.502Z,6.90
2018-07-16T11:17:53.286Z,7.73
2018-07-16T11:20:22.161Z,7.43
2018-07-16T11:22:50.942Z,8.40
2018-07-16T11:25:19.762Z,8.20
2018-07-16T11:27:48.566Z,9.13
2018-07-16T11:30:21.509Z,8.83
2018-07-16T11:32:50.306Z,7.87
2018-07-16T11:35:20.139Z,7.63
2018-07-16T11:37:48.858Z,7.70
2018-07-16T11:40:23.589Z,7.07
2018-07-16T11:42:56.018Z,8.30
2018-07-16T11:45:25.782Z,6.17
2018-07-16T11:47:54.617Z,6.23
2018-07-16T11:50:24.450Z,6.17
2018-07-16T11:52:58.065Z,5.90
2018-07-16T11:55:26.977Z,6.10
2018-07-16T11:57:56.821Z,6.00
2018-07-16T12:00:27.722Z,5.10
2018-07-16T12:02:56.590Z,4.60
2018-07-16T12:05:25.511Z,5.00
2018-07-16T12:07:55.426Z,5.27
2018-07-16T12:10:24.303Z,6.30
2018-07-16T12:12:53.251Z,5.30
2018-07-16T12:15:22.101Z,6.10
2018-07-16T12:17:52.002Z,5.57
2018-07-16T12:20:20.894Z,5.03
2018-07-16T12:22:51.017Z,4.93
2018-07-16T12:25:20.038Z,6.20
2018-07-16T12:27:48.859Z,5.93
2018-07-16T12:30:17.697Z,7.70
2018-07-16T12:32:50.260Z,6.13
2018-07-16T12:35:19.113Z,6.73
2018-07-16T12:37:51.790Z,6.47
2018-07-16T12:40:21.614Z,5.70
2018-07-16T12:42:50.505Z,5.10
2018-07-16T12:45:19.345Z,4.90
2018-07-16T12:47:53.914Z,4.90
2018-07-16T12:50:22.793Z,5.50
2018-07-16T12:52:51.717Z,4.90
2018-07-16T12:55:33.138Z,4.83
2018-07-16T12:58:03.717Z,5.33
2018-07-16T13:00:35.574Z,4.70
2018-07-16T13:03:04.529Z,4.33
2018-07-16T13:05:34.281Z,4.87
2018-07-16T13:11:17.633Z,4.50
2018-07-16T13:13:50.321Z,4.70
2018-07-16T13:18:59.993Z,4.27
2018-07-16T13:21:30.303Z,5.40
2018-07-16T13:24:01.181Z,5.17
2018-07-16T13:26:33.249Z,5.20
2018-07-16T13:29:05.369Z,5.83
2018-07-16T13:31:35.120Z,5.10
2018-07-16T13:34:05.893Z,5.17
2018-07-16T13:36:40.916Z,5.40
2018-07-16T13:39:12.313Z,5.57
2018-07-16T13:41:42.177Z,4.60
2018-07-16T13:44:11.729Z,5.30
2018-07-16T13:46:42.285Z,5.50
2018-07-16T13:49:11.672Z,5.30
2018-07-16T13:51:44.733Z,5.80
2018-07-16T13:54:14.353Z,5.23
2018-07-16T13:56:47.735Z,4.77
2018-07-16T13:59:16.905Z,4.67
2018-07-16T14:01:47.044Z,4.73
2018-07-16T14:04:25.429Z,4.57
2018-07-16T14:06:58.205Z,4.30
2018-07-16T14:09:27.876Z,3.87
2018-07-16T14:11:56.689Z,3.53
2018-07-16T14:14:25.503Z,3.77
2018-07-16T14:16:58.769Z,3.93
2018-07-16T14:19:29.593Z,3.50
2018-07-16T14:22:00.245Z,4.00
2018-07-16T14:24:32.170Z,3.60
2018-07-16T14:27:03.958Z,3.13
2018-07-16T14:29:46.762Z,2.90
2018-07-16T14:32:15.497Z,2.77
2018-07-16T14:34:44.241Z,2.90
2018-07-16T14:37:32.214Z,2.70
2018-07-16T14:40:01.676Z,2.80
2018-07-16T14:42:30.465Z,3.13
2018-07-16T14:44:59.205Z,3.17
2018-07-16T14:47:28.219Z,3.13
2018-07-16T14:49:58.946Z,2.80
2018-07-16T14:52:27.663Z,2.60
2018-07-16T14:54:56.453Z,2.90
2018-07-16T14:57:36.549Z,2.87
2018-07-16T15:00:05.421Z,2.70
2018-07-16T15:02:41.805Z,2.90
2018-07-16T15:05:10.641Z,3.73
2018-07-16T15:07:45.561Z,3.57
2018-07-16T15:10:15.305Z,3.50
2018-07-16T15:12:46.163Z,3.50
2018-07-16T15:15:15.118Z,3.30
2018-07-16T15:17:44.986Z,3.37
2018-07-16T15:20:20.395Z,3.40
2018-07-16T15:22:51.125Z,3.83
2018-07-16T15:25:21.913Z,3.10
2018-07-16T15:27:52.103Z,3.90
2018-07-16T15:30:31.181Z,3.83
2018-07-16T15:33:00.941Z,3.47
2018-07-16T15:35:35.703Z,3.40
2018-07-16T15:38:05.640Z,3.60
2018-07-16T15:40:35.445Z,3.50
2018-07-16T15:43:05.345Z,3.70
2018-07-16T15:45:53.584Z,3.20
2018-07-16T15:48:23.576Z,3.60
2018-07-16T15:50:52.308Z,3.30
2018-07-16T15:53:35.857Z,3.57
2018-07-16T15:56:10.992Z,4.10
2018-07-16T15:58:39.799Z,3.40
2018-07-16T16:01:09.680Z,4.00
2018-07-16T16:03:38.456Z,3.77
2018-07-16T16:06:07.284Z,5.43
2018-07-16T16:08:36.095Z,4.33
2018-07-16T16:11:04.967Z,4.70
2018-07-16T16:13:33.551Z,4.57
2018-07-16T16:16:02.369Z,4.03
2018-07-16T16:18:32.119Z,3.80
2018-07-16T16:21:00.903Z,4.57
2018-07-16T16:23:31.751Z,4.20
2018-07-16T16:26:00.679Z,3.30
2018-07-16T16:28:30.451Z,3.90
2018-07-16T16:31:04.471Z,4.13
2018-07-16T16:33:38.483Z,3.57
2018-07-16T16:36:08.976Z,3.37
2018-07-16T16:38:43.979Z,3.83
2018-07-16T16:41:16.448Z,3.73
2018-07-16T16:43:46.555Z,3.93
2018-07-16T16:46:16.266Z,4.27
2018-07-16T16:48:59.830Z,3.80
2018-07-16T16:51:30.601Z,4.53
2018-07-16T16:54:00.396Z,4.30
2018-07-16T16:56:29.235Z,4.40
2018-07-16T16:58:59.976Z,4.37
2018-07-16T17:01:28.884Z,4.50
2018-07-16T17:03:59.621Z,4.13
2018-07-16T17:06:33.488Z,4.47
2018-07-16T17:09:03.460Z,4.30
2018-07-16T17:11:37.084Z,4.70
2018-07-16T17:14:10.680Z,4.63
2018-07-16T17:16:44.762Z,4.50
2018-07-16T17:19:13.512Z,4.37
2018-07-16T17:21:42.292Z,4.77
2018-07-16T17:24:12.073Z,4.10
2018-07-16T17:26:44.256Z,4.30
2018-07-16T17:29:13.996Z,4.40
2018-07-16T17:31:42.849Z,4.47
2018-07-16T17:34:11.628Z,4.33
2018-07-16T17:36:40.425Z,4.37
2018-07-16T17:39:26.044Z,3.70
2018-07-16T17:41:56.844Z,3.80
2018-07-16T17:44:30.684Z,3.77
2018-07-16T17:46:59.636Z,4.10
2018-07-16T17:49:28.476Z,3.70
2018-07-16T17:52:00.444Z,3.90
2018-07-16T17:54:36.712Z,3.63
2018-07-16T17:57:09.212Z,4.10
2018-07-16T17:59:38.037Z,4.70
2018-07-16T18:02:07.824Z,4.40
2018-07-16T18:04:39.700Z,4.27
2018-07-16T18:07:09.496Z,4.20
2018-07-16T18:09:38.284Z,4.77
2018-07-16T18:12:09.108Z,4.30
2018-07-16T18:14:49.624Z,5.17
2018-07-16T18:17:20.352Z,5.07
2018-07-16T18:19:49.244Z,5.20
2018-07-16T18:22:18.460Z,6.40
2018-07-16T18:24:53.160Z,6.50
2018-07-16T18:27:27.904Z,5.90
2018-07-16T18:29:56.804Z,5.97
2018-07-16T18:32:25.541Z,5.83
2018-07-16T18:34:59.172Z,5.50
2018-07-16T18:40:38.034Z,6.10
2018-07-16T18:43:22.732Z,5.77
2018-07-16T18:46:00.922Z,5.97
2018-07-16T18:48:31.717Z,6.03
2018-07-16T18:51:00.448Z,5.87
2018-07-16T18:53:31.328Z,7.37
2018-07-16T18:56:05.740Z,7.00
2018-07-16T18:58:41.832Z,7.40
2018-07-16T19:01:11.676Z,7.43
2018-07-16T19:03:41.804Z,6.63
2018-07-16T19:06:13.153Z,7.07
2018-07-16T19:08:47.756Z,7.23
2018-07-16T19:11:21.516Z,7.07
2018-07-16T19:13:53.800Z,6.97
2018-07-16T19:16:23.359Z,7.53
2018-07-16T19:18:52.068Z,7.87
2018-07-16T19:21:28.026Z,7.57
2018-07-16T19:24:09.328Z,7.80
2018-07-16T19:26:52.988Z,7.67
2018-07-16T19:29:28.416Z,10.57
2018-07-16T19:32:03.154Z,8.87
2018-07-16T19:34:36.484Z,8.20
2018-07-16T19:37:14.895Z,8.33
2018-07-16T19:39:56.189Z,7.63
2018-07-16T19:42:29.377Z,8.63
2018-07-16T19:44:58.351Z,13.73
2018-07-16T19:47:31.671Z,9.90
2018-07-16T19:50:06.511Z,10.37
2018-07-16T19:52:40.276Z,10.07
2018-07-16T19:55:13.220Z,10.47
2018-07-16T19:57:47.027Z,8.97
2018-07-16T20:00:17.801Z,10.70
2018-07-16T20:02:51.713Z,9.83
2018-07-16T20:05:28.413Z,10.90
2018-07-16T20:08:03.236Z,10.10
2018-07-16T20:10:32.205Z,9.77
2018-07-16T20:13:06.795Z,9.40
2018-07-16T20:15:36.723Z,9.83
2018-07-16T20:18:05.701Z,9.80
2018-07-16T20:20:52.732Z,10.23
2018-07-16T20:23:26.705Z,9.93
2018-07-16T20:25:57.326Z,9.60
2018-07-16T20:28:26.316Z,9.60
2018-07-16T20:30:55.288Z,9.83
2018-07-16T20:33:27.204Z,10.60
2018-07-16T20:35:56.527Z,10.00
2018-07-16T20:38:25.584Z,11.30
2018-07-16T20:40:54.416Z,16.17
2018-07-16T20:43:23.264Z,16.33
2018-07-16T20:45:52.221Z,14.03
2018-07-16T20:48:20.972Z,12.83
2018-07-16T20:50:55.236Z,13.30
2018-07-16T20:53:24.588Z,13.03
2018-07-16T20:55:53.872Z,15.30
2018-07-16T20:58:25.764Z,13.73
2018-07-16T21:00:56.572Z,12.50
2018-07-16T21:03:30.032Z,11.60
2018-07-16T21:06:01.733Z,11.90
2018-07-16T21:08:30.608Z,13.17
2018-07-16T21:10:59.551Z,13.10
2018-07-16T21:13:29.527Z,13.27
2018-07-16T21:16:00.239Z,12.90
2018-07-16T21:18:31.108Z,12.73
2018-07-16T21:21:01.031Z,13.67
2018-07-16T21:23:29.856Z,12.33
2018-07-16T21:26:09.019Z,12.10
2018-07-16T21:28:38.992Z,11.40
2018-07-16T21:31:12.344Z,12.93
2018-07-16T21:33:41.216Z,12.20
2018-07-16T21:36:10.190Z,11.53
2018-07-16T21:38:46.859Z,11.70
2018-07-16T21:41:16.311Z,11.73
2018-07-16T21:43:51.439Z,11.07
2018-07-16T21:46:21.465Z,11.80
2018-07-16T21:48:55.119Z,12.07
2018-07-16T21:51:31.343Z,10.80
2018-07-16T21:54:00.847Z,11.23
2018-07-16T21:56:30.203Z,11.17
2018-07-16T21:59:00.064Z,12.33
2018-07-16T22:01:37.368Z,12.30
2018-07-16T22:04:07.319Z,14.80
2018-07-16T22:06:38.219Z,12.40
2018-07-16T22:09:07.903Z,12.70
2018-07-16T22:11:38.875Z,12.60
2018-07-16T22:14:12.043Z,11.17
2018-07-16T22:16:40.899Z,11.77
2018-07-16T22:19:11.751Z,11.90
2018-07-16T22:21:40.599Z,14.87
2018-07-16T22:24:09.495Z,15.20
2018-07-16T22:26:39.311Z,13.30
2018-07-16T22:29:09.135Z,12.47
2018-07-16T22:31:50.016Z,12.40
2018-07-16T22:34:23.023Z,12.70
2018-07-16T22:36:53.999Z,11.60
2018-07-16T22:39:26.615Z,12.90
2018-07-16T22:42:03.819Z,13.03
2018-07-16T22:44:41.378Z,13.00
2018-07-16T22:47:13.851Z,13.03
2018-07-16T22:49:48.495Z,13.87
2018-07-16T22:52:19.319Z,13.13
2018-07-16T22:54:56.407Z,14.90
2018-07-16T22:57:25.571Z,13.30
2018-07-16T22:59:59.867Z,13.97
2018-07-16T23:02:28.559Z,14.70
2018-07-16T23:05:00.827Z,14.10
2018-07-16T23:07:29.524Z,12.97
2018-07-16T23:09:58.343Z,13.00
2018-07-16T23:12:29.211Z,11.60
2018-07-16T23:15:12.219Z,11.83
2018-07-16T23:17:48.835Z,12.53
2018-07-16T23:20:17.611Z,12.37
2018-07-16T23:22:52.911Z,13.57
2018-07-16T23:25:25.473Z,13.30
2018-07-16T23:27:58.235Z,13.60
2018-07-16T23:30:27.131Z,13.73
2018-07-16T23:32:56.028Z,13.30
2018-07-16T23:35:25.859Z,13.93
2018-07-16T23:37:54.722Z,13.23
2018-07-16T23:40:23.515Z,13.57
2018-07-16T23:42:54.363Z,13.77
2018-07-16T23:45:23.303Z,14.10
2018-07-16T23:47:56.435Z,13.60
2018-07-16T23:50:26.312Z,14.97
2018-07-16T23:52:57.095Z,13.60
2018-07-16T23:55:35.465Z,15.23
2018-07-16T23:58:10.507Z,14.63
